sensor_id;sensor_type;location;lat;lon;timestamp;P1;durP1;ratioP1;P2;durP2;ratioP2
15490;SDS011;7847;50.930;4.336;2023-02-15T00:01:23;0.50;;;0.50;;
15490;SDS011;7847;50.930;4.336;2023-02-15T00:03:49;0.47;;;0.47;;
15490;SDS011;7847;50.930;4.336;2023-02-15T00:06:16;0.50;;;0.50;;
15490;SDS011;7847;50.930;4.336;2023-02-15T00:08:42;0.50;;;0.50;;
15490;SDS011;7847;50.930;4.336;2023-02-15T00:11:09;0.50;;;0.50;;
15490;SDS011;7847;50.930;4.336;2023-02-15T00:13:36;0.40;;;0.40;;
15490;SDS011;7847;50.930;4.336;2023-02-15T00:16:04;0.50;;;0.50;;
15490;SDS011;7847;50.930;4.336;2023-02-15T00:18:30;0.40;;;0.40;;
15490;SDS011;7847;50.930;4.336;2023-02-15T00:20:57;0.40;;;0.40;;
15490;SDS011;7847;50.930;4.336;2023-02-15T00:23:23;0.50;;;0.50;;
15490;SDS011;7847;50.930;4.336;2023-02-15T00:25:49;0.43;;;0.43;;
15490;SDS011;7847;50.930;4.336;2023-02-15T00:28:15;0.53;;;0.53;;
15490;SDS011;7847;50.930;4.336;2023-02-15T00:30:41;0.53;;;0.53;;
15490;SDS011;7847;50.930;4.336;2023-02-15T00:33:07;0.50;;;0.50;;
15490;SDS011;7847;50.930;4.336;2023-02-15T00:35:33;0.50;;;0.50;;
15490;SDS011;7847;50.930;4.336;2023-02-15T00:37:59;0.50;;;0.50;;
15490;SDS011;7847;50.930;4.336;2023-02-15T00:40:26;0.50;;;0.50;;
15490;SDS011;7847;50.930;4.336;2023-02-15T00:42:52;0.40;;;0.40;;
15490;SDS011;7847;50.930;4.336;2023-02-15T00:45:18;0.50;;;0.50;;
15490;SDS011;7847;50.930;4.336;2023-02-15T00:47:46;0.50;;;0.50;;
15490;SDS011;7847;50.930;4.336;2023-02-15T00:50:12;0.50;;;0.50;;
15490;SDS011;7847;50.930;4.336;2023-02-15T00:52:38;0.60;;;0.60;;
15490;SDS011;7847;50.930;4.336;2023-02-15T00:55:04;0.50;;;0.50;;
15490;SDS011;7847;50.930;4.336;2023-02-15T00:57:30;0.50;;;0.50;;
15490;SDS011;7847;50.930;4.336;2023-02-15T00:59:56;0.50;;;0.50;;
15490;SDS011;7847;50.930;4.336;2023-02-15T01:02:22;0.50;;;0.50;;
15490;SDS011;7847;50.930;4.336;2023-02-15T01:04:48;0.60;;;0.60;;
15490;SDS011;7847;50.930;4.336;2023-02-15T01:07:14;0.60;;;0.60;;
15490;SDS011;7847;50.930;4.336;2023-02-15T01:09:41;0.50;;;0.50;;
15490;SDS011;7847;50.930;4.336;2023-02-15T01:12:07;0.40;;;0.40;;
15490;SDS011;7847;50.930;4.336;2023-02-15T01:14:33;0.50;;;0.50;;
15490;SDS011;7847;50.930;4.336;2023-02-15T01:16:59;0.50;;;0.50;;
15490;SDS011;7847;50.930;4.336;2023-02-15T01:19:25;0.50;;;0.50;;
15490;SDS011;7847;50.930;4.336;2023-02-15T01:21:51;0.50;;;0.50;;
15490;SDS011;7847;50.930;4.336;2023-02-15T01:24:17;0.50;;;0.50;;
15490;SDS011;7847;50.930;4.336;2023-02-15T01:26:44;0.50;;;0.50;;
15490;SDS011;7847;50.930;4.336;2023-02-15T01:29:10;0.60;;;0.60;;
15490;SDS011;7847;50.930;4.336;2023-02-15T01:31:36;0.50;;;0.50;;
15490;SDS011;7847;50.930;4.336;2023-02-15T01:34:03;0.50;;;0.50;;
15490;SDS011;7847;50.930;4.336;2023-02-15T01:36:29;0.50;;;0.50;;
15490;SDS011;7847;50.930;4.336;2023-02-15T01:38:57;0.50;;;0.50;;
15490;SDS011;7847;50.930;4.336;2023-02-15T01:41:23;0.50;;;0.50;;
15490;SDS011;7847;50.930;4.336;2023-02-15T01:43:54;0.50;;;0.50;;
15490;SDS011;7847;50.930;4.336;2023-02-15T01:46:22;0.50;;;0.50;;
15490;SDS011;7847;50.930;4.336;2023-02-15T01:48:55;0.60;;;0.60;;
15490;SDS011;7847;50.930;4.336;2023-02-15T01:51:23;0.60;;;0.60;;
15490;SDS011;7847;50.930;4.336;2023-02-15T01:53:51;0.50;;;0.50;;
15490;SDS011;7847;50.930;4.336;2023-02-15T01:56:19;0.50;;;0.50;;
15490;SDS011;7847;50.930;4.336;2023-02-15T01:58:47;0.43;;;0.43;;
15490;SDS011;7847;50.930;4.336;2023-02-15T02:01:14;0.50;;;0.50;;
15490;SDS011;7847;50.930;4.336;2023-02-15T02:06:07;0.50;;;0.50;;
15490;SDS011;7847;50.930;4.336;2023-02-15T02:08:33;0.50;;;0.50;;
15490;SDS011;7847;50.930;4.336;2023-02-15T02:10:59;0.40;;;0.40;;
15490;SDS011;7847;50.930;4.336;2023-02-15T02:13:25;0.50;;;0.50;;
15490;SDS011;7847;50.930;4.336;2023-02-15T02:16:03;0.50;;;0.50;;
15490;SDS011;7847;50.930;4.336;2023-02-15T02:21:02;0.50;;;0.50;;
15490;SDS011;7847;50.930;4.336;2023-02-15T02:26:12;0.50;;;0.50;;
15490;SDS011;7847;50.930;4.336;2023-02-15T02:36:40;0.40;;;0.40;;
15490;SDS011;7847;50.930;4.336;2023-02-15T02:49:38;0.53;;;0.53;;
15490;SDS011;7847;50.930;4.336;2023-02-15T02:52:06;0.50;;;0.50;;
15490;SDS011;7847;50.930;4.336;2023-02-15T02:54:33;0.60;;;0.60;;
15490;SDS011;7847;50.930;4.336;2023-02-15T02:57:01;0.60;;;0.60;;
15490;SDS011;7847;50.930;4.336;2023-02-15T02:59:31;0.60;;;0.60;;
15490;SDS011;7847;50.930;4.336;2023-02-15T03:02:04;0.50;;;0.50;;
15490;SDS011;7847;50.930;4.336;2023-02-15T03:04:35;0.50;;;0.50;;
15490;SDS011;7847;50.930;4.336;2023-02-15T03:07:07;0.50;;;0.50;;
15490;SDS011;7847;50.930;4.336;2023-02-15T03:09:36;0.60;;;0.60;;
15490;SDS011;7847;50.930;4.336;2023-02-15T03:12:13;0.60;;;0.60;;
15490;SDS011;7847;50.930;4.336;2023-02-15T03:14:40;0.50;;;0.50;;
15490;SDS011;7847;50.930;4.336;2023-02-15T03:17:09;0.50;;;0.50;;
15490;SDS011;7847;50.930;4.336;2023-02-15T03:19:37;0.50;;;0.50;;
15490;SDS011;7847;50.930;4.336;2023-02-15T03:22:14;0.60;;;0.60;;
15490;SDS011;7847;50.930;4.336;2023-02-15T03:24:47;0.50;;;0.50;;
15490;SDS011;7847;50.930;4.336;2023-02-15T03:27:15;0.50;;;0.50;;
15490;SDS011;7847;50.930;4.336;2023-02-15T03:29:43;0.50;;;0.50;;
15490;SDS011;7847;50.930;4.336;2023-02-15T03:32:10;0.60;;;0.60;;
15490;SDS011;7847;50.930;4.336;2023-02-15T03:34:37;0.57;;;0.57;;
15490;SDS011;7847;50.930;4.336;2023-02-15T03:39:52;0.50;;;0.50;;
15490;SDS011;7847;50.930;4.336;2023-02-15T03:42:26;0.50;;;0.50;;
15490;SDS011;7847;50.930;4.336;2023-02-15T03:44:58;0.60;;;0.60;;
15490;SDS011;7847;50.930;4.336;2023-02-15T03:47:26;0.60;;;0.60;;
15490;SDS011;7847;50.930;4.336;2023-02-15T03:50:01;0.50;;;0.50;;
15490;SDS011;7847;50.930;4.336;2023-02-15T03:52:28;0.60;;;0.60;;
15490;SDS011;7847;50.930;4.336;2023-02-15T03:54:55;0.60;;;0.60;;
15490;SDS011;7847;50.930;4.336;2023-02-15T03:57:22;0.47;;;0.47;;
15490;SDS011;7847;50.930;4.336;2023-02-15T04:00:21;0.50;;;0.50;;
15490;SDS011;7847;50.930;4.336;2023-02-15T04:05:52;0.50;;;0.50;;
15490;SDS011;7847;50.930;4.336;2023-02-15T04:08:18;0.50;;;0.50;;
15490;SDS011;7847;50.930;4.336;2023-02-15T04:10:44;0.50;;;0.50;;
15490;SDS011;7847;50.930;4.336;2023-02-15T04:13:29;0.50;;;0.50;;
15490;SDS011;7847;50.930;4.336;2023-02-15T04:15:55;0.60;;;0.60;;
15490;SDS011;7847;50.930;4.336;2023-02-15T04:18:37;0.60;;;0.60;;
15490;SDS011;7847;50.930;4.336;2023-02-15T04:21:23;0.50;;;0.50;;
15490;SDS011;7847;50.930;4.336;2023-02-15T04:24:08;0.43;;;0.43;;
15490;SDS011;7847;50.930;4.336;2023-02-15T04:26:53;0.57;;;0.57;;
15490;SDS011;7847;50.930;4.336;2023-02-15T04:29:19;0.50;;;0.50;;
15490;SDS011;7847;50.930;4.336;2023-02-15T04:31:46;0.57;;;0.57;;
15490;SDS011;7847;50.930;4.336;2023-02-15T04:34:12;0.50;;;0.50;;
15490;SDS011;7847;50.930;4.336;2023-02-15T04:36:39;0.50;;;0.50;;
15490;SDS011;7847;50.930;4.336;2023-02-15T04:39:05;0.60;;;0.60;;
15490;SDS011;7847;50.930;4.336;2023-02-15T04:41:31;0.60;;;0.60;;
15490;SDS011;7847;50.930;4.336;2023-02-15T04:43:58;0.50;;;0.50;;
15490;SDS011;7847;50.930;4.336;2023-02-15T04:46:25;0.40;;;0.40;;
15490;SDS011;7847;50.930;4.336;2023-02-15T04:48:51;0.50;;;0.50;;
15490;SDS011;7847;50.930;4.336;2023-02-15T04:51:17;0.60;;;0.60;;
15490;SDS011;7847;50.930;4.336;2023-02-15T04:53:43;0.40;;;0.40;;
15490;SDS011;7847;50.930;4.336;2023-02-15T04:56:09;0.50;;;0.50;;
15490;SDS011;7847;50.930;4.336;2023-02-15T04:58:35;0.53;;;0.53;;
15490;SDS011;7847;50.930;4.336;2023-02-15T05:01:04;0.60;;;0.60;;
15490;SDS011;7847;50.930;4.336;2023-02-15T05:03:30;0.50;;;0.50;;
15490;SDS011;7847;50.930;4.336;2023-02-15T05:05:56;0.60;;;0.60;;
15490;SDS011;7847;50.930;4.336;2023-02-15T05:08:22;0.60;;;0.60;;
15490;SDS011;7847;50.930;4.336;2023-02-15T05:10:48;0.60;;;0.60;;
15490;SDS011;7847;50.930;4.336;2023-02-15T05:13:15;0.53;;;0.53;;
15490;SDS011;7847;50.930;4.336;2023-02-15T05:15:41;0.57;;;0.57;;
15490;SDS011;7847;50.930;4.336;2023-02-15T05:18:07;0.60;;;0.60;;
15490;SDS011;7847;50.930;4.336;2023-02-15T05:20:33;0.70;;;0.70;;
15490;SDS011;7847;50.930;4.336;2023-02-15T05:22:59;0.50;;;0.50;;
15490;SDS011;7847;50.930;4.336;2023-02-15T05:25:25;0.50;;;0.50;;
15490;SDS011;7847;50.930;4.336;2023-02-15T05:28:11;0.50;;;0.50;;
15490;SDS011;7847;50.930;4.336;2023-02-15T05:30:47;0.50;;;0.50;;
15490;SDS011;7847;50.930;4.336;2023-02-15T05:33:13;0.50;;;0.50;;
15490;SDS011;7847;50.930;4.336;2023-02-15T05:35:39;0.40;;;0.40;;
15490;SDS011;7847;50.930;4.336;2023-02-15T05:38:05;0.50;;;0.50;;
15490;SDS011;7847;50.930;4.336;2023-02-15T05:40:31;0.50;;;0.50;;
15490;SDS011;7847;50.930;4.336;2023-02-15T05:42:57;0.50;;;0.50;;
15490;SDS011;7847;50.930;4.336;2023-02-15T05:45:24;0.50;;;0.50;;
15490;SDS011;7847;50.930;4.336;2023-02-15T05:47:50;0.50;;;0.50;;
15490;SDS011;7847;50.930;4.336;2023-02-15T05:50:16;0.50;;;0.50;;
15490;SDS011;7847;50.930;4.336;2023-02-15T05:52:42;0.50;;;0.50;;
15490;SDS011;7847;50.930;4.336;2023-02-15T05:55:08;0.50;;;0.50;;
15490;SDS011;7847;50.930;4.336;2023-02-15T05:57:35;0.50;;;0.50;;
15490;SDS011;7847;50.930;4.336;2023-02-15T06:00:02;0.53;;;0.53;;
15490;SDS011;7847;50.930;4.336;2023-02-15T06:02:29;0.50;;;0.50;;
15490;SDS011;7847;50.930;4.336;2023-02-15T06:04:55;0.60;;;0.60;;
15490;SDS011;7847;50.930;4.336;2023-02-15T06:07:21;0.50;;;0.50;;
15490;SDS011;7847;50.930;4.336;2023-02-15T06:09:48;0.53;;;0.53;;
15490;SDS011;7847;50.930;4.336;2023-02-15T06:12:14;0.60;;;0.60;;
15490;SDS011;7847;50.930;4.336;2023-02-15T06:14:40;0.50;;;0.50;;
15490;SDS011;7847;50.930;4.336;2023-02-15T06:17:06;0.53;;;0.53;;
15490;SDS011;7847;50.930;4.336;2023-02-15T06:19:32;0.50;;;0.50;;
15490;SDS011;7847;50.930;4.336;2023-02-15T06:21:58;0.50;;;0.50;;
15490;SDS011;7847;50.930;4.336;2023-02-15T06:24:24;0.50;;;0.50;;
15490;SDS011;7847;50.930;4.336;2023-02-15T06:26:50;0.60;;;0.60;;
15490;SDS011;7847;50.930;4.336;2023-02-15T06:29:16;0.40;;;0.40;;
15490;SDS011;7847;50.930;4.336;2023-02-15T06:31:42;0.50;;;0.50;;
15490;SDS011;7847;50.930;4.336;2023-02-15T06:34:09;0.60;;;0.60;;
15490;SDS011;7847;50.930;4.336;2023-02-15T06:36:35;0.50;;;0.50;;
15490;SDS011;7847;50.930;4.336;2023-02-15T06:39:01;0.50;;;0.50;;
15490;SDS011;7847;50.930;4.336;2023-02-15T06:41:28;0.60;;;0.60;;
15490;SDS011;7847;50.930;4.336;2023-02-15T06:43:54;0.60;;;0.60;;
15490;SDS011;7847;50.930;4.336;2023-02-15T06:46:20;0.50;;;0.50;;
15490;SDS011;7847;50.930;4.336;2023-02-15T06:48:46;0.50;;;0.50;;
15490;SDS011;7847;50.930;4.336;2023-02-15T06:51:12;0.40;;;0.40;;
15490;SDS011;7847;50.930;4.336;2023-02-15T06:53:38;0.50;;;0.50;;
15490;SDS011;7847;50.930;4.336;2023-02-15T06:56:08;0.50;;;0.50;;
15490;SDS011;7847;50.930;4.336;2023-02-15T06:58:35;0.53;;;0.53;;
15490;SDS011;7847;50.930;4.336;2023-02-15T07:01:01;0.53;;;0.53;;
15490;SDS011;7847;50.930;4.336;2023-02-15T07:03:28;0.60;;;0.60;;
15490;SDS011;7847;50.930;4.336;2023-02-15T07:05:57;0.50;;;0.50;;
15490;SDS011;7847;50.930;4.336;2023-02-15T07:08:24;0.60;;;0.60;;
15490;SDS011;7847;50.930;4.336;2023-02-15T07:10:50;0.50;;;0.50;;
15490;SDS011;7847;50.930;4.336;2023-02-15T07:13:17;0.40;;;0.40;;
15490;SDS011;7847;50.930;4.336;2023-02-15T07:15:43;0.60;;;0.60;;
15490;SDS011;7847;50.930;4.336;2023-02-15T07:18:10;0.60;;;0.60;;
15490;SDS011;7847;50.930;4.336;2023-02-15T07:20:36;0.50;;;0.50;;
15490;SDS011;7847;50.930;4.336;2023-02-15T07:23:03;0.50;;;0.50;;
15490;SDS011;7847;50.930;4.336;2023-02-15T07:25:29;0.50;;;0.50;;
15490;SDS011;7847;50.930;4.336;2023-02-15T07:27:59;0.60;;;0.60;;
15490;SDS011;7847;50.930;4.336;2023-02-15T07:30:25;0.50;;;0.50;;
15490;SDS011;7847;50.930;4.336;2023-02-15T07:32:55;0.50;;;0.50;;
15490;SDS011;7847;50.930;4.336;2023-02-15T07:35:46;0.57;;;0.57;;
15490;SDS011;7847;50.930;4.336;2023-02-15T07:38:12;0.70;;;0.70;;
15490;SDS011;7847;50.930;4.336;2023-02-15T07:40:38;0.50;;;0.50;;
15490;SDS011;7847;50.930;4.336;2023-02-15T07:43:04;0.60;;;0.60;;
15490;SDS011;7847;50.930;4.336;2023-02-15T07:45:30;0.50;;;0.50;;
15490;SDS011;7847;50.930;4.336;2023-02-15T07:47:56;0.50;;;0.50;;
15490;SDS011;7847;50.930;4.336;2023-02-15T07:50:22;0.60;;;0.60;;
15490;SDS011;7847;50.930;4.336;2023-02-15T07:52:49;0.50;;;0.50;;
15490;SDS011;7847;50.930;4.336;2023-02-15T07:55:15;0.50;;;0.50;;
15490;SDS011;7847;50.930;4.336;2023-02-15T07:57:42;0.53;;;0.53;;
15490;SDS011;7847;50.930;4.336;2023-02-15T08:00:09;0.50;;;0.50;;
15490;SDS011;7847;50.930;4.336;2023-02-15T08:02:36;0.50;;;0.50;;
15490;SDS011;7847;50.930;4.336;2023-02-15T08:05:02;0.50;;;0.50;;
15490;SDS011;7847;50.930;4.336;2023-02-15T08:07:28;0.40;;;0.40;;
15490;SDS011;7847;50.930;4.336;2023-02-15T08:09:54;0.60;;;0.60;;
15490;SDS011;7847;50.930;4.336;2023-02-15T08:12:20;0.60;;;0.60;;
15490;SDS011;7847;50.930;4.336;2023-02-15T08:14:47;0.60;;;0.60;;
15490;SDS011;7847;50.930;4.336;2023-02-15T08:17:13;0.50;;;0.50;;
15490;SDS011;7847;50.930;4.336;2023-02-15T08:19:39;0.60;;;0.60;;
15490;SDS011;7847;50.930;4.336;2023-02-15T08:22:06;0.50;;;0.50;;
15490;SDS011;7847;50.930;4.336;2023-02-15T08:24:33;0.40;;;0.40;;
15490;SDS011;7847;50.930;4.336;2023-02-15T08:27:01;0.70;;;0.70;;
15490;SDS011;7847;50.930;4.336;2023-02-15T08:29:29;0.60;;;0.60;;
15490;SDS011;7847;50.930;4.336;2023-02-15T08:31:59;0.47;;;0.47;;
15490;SDS011;7847;50.930;4.336;2023-02-15T08:34:30;0.50;;;0.50;;
15490;SDS011;7847;50.930;4.336;2023-02-15T08:36:57;0.53;;;0.53;;
15490;SDS011;7847;50.930;4.336;2023-02-15T08:39:23;0.50;;;0.50;;
15490;SDS011;7847;50.930;4.336;2023-02-15T08:41:49;0.50;;;0.50;;
15490;SDS011;7847;50.930;4.336;2023-02-15T08:44:16;0.40;;;0.40;;
15490;SDS011;7847;50.930;4.336;2023-02-15T08:46:43;0.50;;;0.50;;
15490;SDS011;7847;50.930;4.336;2023-02-15T08:49:15;0.50;;;0.50;;
15490;SDS011;7847;50.930;4.336;2023-02-15T08:51:41;0.50;;;0.50;;
15490;SDS011;7847;50.930;4.336;2023-02-15T08:54:08;0.60;;;0.60;;
15490;SDS011;7847;50.930;4.336;2023-02-15T08:56:37;0.60;;;0.60;;
15490;SDS011;7847;50.930;4.336;2023-02-15T08:59:03;0.50;;;0.50;;
15490;SDS011;7847;50.930;4.336;2023-02-15T09:01:30;0.50;;;0.50;;
15490;SDS011;7847;50.930;4.336;2023-02-15T09:04:01;0.50;;;0.50;;
15490;SDS011;7847;50.930;4.336;2023-02-15T09:06:29;0.60;;;0.60;;
15490;SDS011;7847;50.930;4.336;2023-02-15T09:08:55;0.57;;;0.57;;
15490;SDS011;7847;50.930;4.336;2023-02-15T09:11:22;0.60;;;0.60;;
15490;SDS011;7847;50.930;4.336;2023-02-15T09:14:00;0.50;;;0.50;;
15490;SDS011;7847;50.930;4.336;2023-02-15T09:16:27;0.50;;;0.50;;
15490;SDS011;7847;50.930;4.336;2023-02-15T09:18:54;0.50;;;0.50;;
15490;SDS011;7847;50.930;4.336;2023-02-15T09:21:22;0.47;;;0.47;;
15490;SDS011;7847;50.930;4.336;2023-02-15T09:23:50;0.50;;;0.50;;
15490;SDS011;7847;50.930;4.336;2023-02-15T09:26:21;0.40;;;0.40;;
15490;SDS011;7847;50.930;4.336;2023-02-15T09:28:50;0.50;;;0.50;;
15490;SDS011;7847;50.930;4.336;2023-02-15T09:31:17;0.50;;;0.50;;
15490;SDS011;7847;50.930;4.336;2023-02-15T09:33:44;0.50;;;0.50;;
15490;SDS011;7847;50.930;4.336;2023-02-15T09:38:40;0.50;;;0.50;;
15490;SDS011;7847;50.930;4.336;2023-02-15T09:46:44;0.50;;;0.50;;
15490;SDS011;7847;50.930;4.336;2023-02-15T09:51:59;0.50;;;0.50;;
15490;SDS011;7847;50.930;4.336;2023-02-15T09:54:33;0.40;;;0.40;;
15490;SDS011;7847;50.930;4.336;2023-02-15T09:57:06;0.40;;;0.40;;
15490;SDS011;7847;50.930;4.336;2023-02-15T10:05:00;0.50;;;0.50;;
15490;SDS011;7847;50.930;4.336;2023-02-15T10:15:43;0.40;;;0.40;;
15490;SDS011;7847;50.930;4.336;2023-02-15T10:18:26;0.40;;;0.40;;
15490;SDS011;7847;50.930;4.336;2023-02-15T10:21:00;0.50;;;0.50;;
15490;SDS011;7847;50.930;4.336;2023-02-15T10:28:43;0.40;;;0.40;;
15490;SDS011;7847;50.930;4.336;2023-02-15T10:31:14;0.40;;;0.40;;
15490;SDS011;7847;50.930;4.336;2023-02-15T10:33:42;0.40;;;0.40;;
15490;SDS011;7847;50.930;4.336;2023-02-15T10:41:11;0.40;;;0.40;;
15490;SDS011;7847;50.930;4.336;2023-02-15T10:46:45;0.40;;;0.40;;
15490;SDS011;7847;50.930;4.336;2023-02-15T10:50:16;0.40;;;0.40;;
15490;SDS011;7847;50.930;4.336;2023-02-15T10:52:21;0.40;;;0.40;;
15490;SDS011;7847;50.930;4.336;2023-02-15T11:03:02;0.40;;;0.40;;
15490;SDS011;7847;50.930;4.336;2023-02-15T11:08:18;0.30;;;0.30;;
15490;SDS011;7847;50.930;4.336;2023-02-15T11:13:13;0.30;;;0.30;;
15490;SDS011;7847;50.930;4.336;2023-02-15T11:15:42;0.30;;;0.30;;
15490;SDS011;7847;50.930;4.336;2023-02-15T11:20:41;0.30;;;0.30;;
15490;SDS011;7847;50.930;4.336;2023-02-15T11:23:14;0.30;;;0.30;;
15490;SDS011;7847;50.930;4.336;2023-02-15T11:25:43;0.30;;;0.30;;
15490;SDS011;7847;50.930;4.336;2023-02-15T11:28:14;0.30;;;0.30;;
15490;SDS011;7847;50.930;4.336;2023-02-15T11:30:43;0.37;;;0.37;;
15490;SDS011;7847;50.930;4.336;2023-02-15T11:33:17;0.30;;;0.30;;
15490;SDS011;7847;50.930;4.336;2023-02-15T11:35:54;0.30;;;0.30;;
15490;SDS011;7847;50.930;4.336;2023-02-15T11:38:24;0.30;;;0.30;;
15490;SDS011;7847;50.930;4.336;2023-02-15T11:41:02;0.30;;;0.30;;
15490;SDS011;7847;50.930;4.336;2023-02-15T11:46:04;0.30;;;0.30;;
15490;SDS011;7847;50.930;4.336;2023-02-15T11:48:31;0.30;;;0.30;;
15490;SDS011;7847;50.930;4.336;2023-02-15T11:50:58;0.30;;;0.30;;
15490;SDS011;7847;50.930;4.336;2023-02-15T11:53:24;0.30;;;0.30;;
15490;SDS011;7847;50.930;4.336;2023-02-15T11:55:53;0.37;;;0.37;;
15490;SDS011;7847;50.930;4.336;2023-02-15T12:00:45;0.30;;;0.30;;
15490;SDS011;7847;50.930;4.336;2023-02-15T12:03:21;0.30;;;0.30;;
15490;SDS011;7847;50.930;4.336;2023-02-15T12:05:50;0.30;;;0.30;;
15490;SDS011;7847;50.930;4.336;2023-02-15T12:08:19;0.30;;;0.30;;
15490;SDS011;7847;50.930;4.336;2023-02-15T12:13:19;0.30;;;0.30;;
15490;SDS011;7847;50.930;4.336;2023-02-15T12:15:47;0.30;;;0.30;;
15490;SDS011;7847;50.930;4.336;2023-02-15T12:20:46;0.30;;;0.30;;
15490;SDS011;7847;50.930;4.336;2023-02-15T12:23:12;0.30;;;0.30;;
15490;SDS011;7847;50.930;4.336;2023-02-15T12:28:15;0.30;;;0.30;;
15490;SDS011;7847;50.930;4.336;2023-02-15T12:30:46;0.30;;;0.30;;
15490;SDS011;7847;50.930;4.336;2023-02-15T12:33:17;0.30;;;0.30;;
15490;SDS011;7847;50.930;4.336;2023-02-15T12:35:46;0.30;;;0.30;;
15490;SDS011;7847;50.930;4.336;2023-02-15T12:40:41;0.30;;;0.30;;
15490;SDS011;7847;50.930;4.336;2023-02-15T12:46:13;0.30;;;0.30;;
15490;SDS011;7847;50.930;4.336;2023-02-15T12:48:40;0.30;;;0.30;;
15490;SDS011;7847;50.930;4.336;2023-02-15T12:51:07;0.30;;;0.30;;
15490;SDS011;7847;50.930;4.336;2023-02-15T12:53:34;0.30;;;0.30;;
15490;SDS011;7847;50.930;4.336;2023-02-15T12:56:02;0.30;;;0.30;;
15490;SDS011;7847;50.930;4.336;2023-02-15T12:58:29;0.30;;;0.30;;
15490;SDS011;7847;50.930;4.336;2023-02-15T13:03:36;0.20;;;0.20;;
15490;SDS011;7847;50.930;4.336;2023-02-15T13:06:03;0.20;;;0.20;;
15490;SDS011;7847;50.930;4.336;2023-02-15T13:08:34;0.30;;;0.30;;
15490;SDS011;7847;50.930;4.336;2023-02-15T13:13:27;0.30;;;0.30;;
15490;SDS011;7847;50.930;4.336;2023-02-15T13:16:15;0.30;;;0.30;;
15490;SDS011;7847;50.930;4.336;2023-02-15T13:18:44;0.30;;;0.30;;
15490;SDS011;7847;50.930;4.336;2023-02-15T13:21:19;0.30;;;0.30;;
15490;SDS011;7847;50.930;4.336;2023-02-15T13:23:50;0.30;;;0.30;;
15490;SDS011;7847;50.930;4.336;2023-02-15T13:26:21;0.30;;;0.30;;
15490;SDS011;7847;50.930;4.336;2023-02-15T13:28:52;0.30;;;0.30;;
15490;SDS011;7847;50.930;4.336;2023-02-15T13:31:20;0.30;;;0.30;;
15490;SDS011;7847;50.930;4.336;2023-02-15T13:33:49;0.30;;;0.30;;
15490;SDS011;7847;50.930;4.336;2023-02-15T13:41:15;0.30;;;0.30;;
15490;SDS011;7847;50.930;4.336;2023-02-15T13:46:18;0.30;;;0.30;;
15490;SDS011;7847;50.930;4.336;2023-02-15T13:51:22;0.30;;;0.30;;
15490;SDS011;7847;50.930;4.336;2023-02-15T14:09:44;0.30;;;0.30;;
15490;SDS011;7847;50.930;4.336;2023-02-15T14:14:45;0.30;;;0.30;;
15490;SDS011;7847;50.930;4.336;2023-02-15T14:17:23;0.20;;;0.20;;
15490;SDS011;7847;50.930;4.336;2023-02-15T14:19:57;0.20;;;0.20;;
15490;SDS011;7847;50.930;4.336;2023-02-15T14:27:27;0.20;;;0.20;;
15490;SDS011;7847;50.930;4.336;2023-02-15T14:29:57;0.30;;;0.30;;
15490;SDS011;7847;50.930;4.336;2023-02-15T14:35:05;0.20;;;0.20;;
15490;SDS011;7847;50.930;4.336;2023-02-15T14:40:12;0.30;;;0.30;;
15490;SDS011;7847;50.930;4.336;2023-02-15T14:43:02;0.30;;;0.30;;
15490;SDS011;7847;50.930;4.336;2023-02-15T14:45:55;0.30;;;0.30;;
15490;SDS011;7847;50.930;4.336;2023-02-15T14:48:21;0.30;;;0.30;;
15490;SDS011;7847;50.930;4.336;2023-02-15T14:50:50;0.30;;;0.30;;
15490;SDS011;7847;50.930;4.336;2023-02-15T14:53:25;0.20;;;0.20;;
15490;SDS011;7847;50.930;4.336;2023-02-15T14:58:36;0.20;;;0.20;;
15490;SDS011;7847;50.930;4.336;2023-02-15T15:01:11;0.30;;;0.30;;
15490;SDS011;7847;50.930;4.336;2023-02-15T15:03:43;0.30;;;0.30;;
15490;SDS011;7847;50.930;4.336;2023-02-15T15:06:23;0.20;;;0.20;;
15490;SDS011;7847;50.930;4.336;2023-02-15T15:08:58;0.30;;;0.30;;
15490;SDS011;7847;50.930;4.336;2023-02-15T15:17:02;0.20;;;0.20;;
15490;SDS011;7847;50.930;4.336;2023-02-15T15:19:09;0.30;;;0.30;;
15490;SDS011;7847;50.930;4.336;2023-02-15T15:29:41;0.20;;;0.20;;
15490;SDS011;7847;50.930;4.336;2023-02-15T15:32:08;0.30;;;0.30;;
15490;SDS011;7847;50.930;4.336;2023-02-15T15:34:45;0.20;;;0.20;;
15490;SDS011;7847;50.930;4.336;2023-02-15T15:45:41;0.30;;;0.30;;
15490;SDS011;7847;50.930;4.336;2023-02-15T15:50:46;0.30;;;0.30;;
15490;SDS011;7847;50.930;4.336;2023-02-15T15:53:18;0.30;;;0.30;;
15490;SDS011;7847;50.930;4.336;2023-02-15T15:55:45;0.30;;;0.30;;
15490;SDS011;7847;50.930;4.336;2023-02-15T15:58:13;0.30;;;0.30;;
15490;SDS011;7847;50.930;4.336;2023-02-15T16:00:44;0.30;;;0.30;;
15490;SDS011;7847;50.930;4.336;2023-02-15T16:03:30;0.30;;;0.30;;
15490;SDS011;7847;50.930;4.336;2023-02-15T16:05:57;0.30;;;0.30;;
15490;SDS011;7847;50.930;4.336;2023-02-15T16:08:26;0.30;;;0.30;;
15490;SDS011;7847;50.930;4.336;2023-02-15T16:10:52;0.30;;;0.30;;
15490;SDS011;7847;50.930;4.336;2023-02-15T16:13:18;0.20;;;0.20;;
15490;SDS011;7847;50.930;4.336;2023-02-15T16:15:45;0.30;;;0.30;;
15490;SDS011;7847;50.930;4.336;2023-02-15T16:18:15;0.30;;;0.30;;
15490;SDS011;7847;50.930;4.336;2023-02-15T16:20:45;0.30;;;0.30;;
15490;SDS011;7847;50.930;4.336;2023-02-15T16:25:56;0.27;;;0.27;;
15490;SDS011;7847;50.930;4.336;2023-02-15T16:28:26;0.30;;;0.30;;
15490;SDS011;7847;50.930;4.336;2023-02-15T16:31:27;0.20;;;0.20;;
15490;SDS011;7847;50.930;4.336;2023-02-15T16:33:47;0.30;;;0.30;;
15490;SDS011;7847;50.930;4.336;2023-02-15T16:41:12;0.20;;;0.20;;
15490;SDS011;7847;50.930;4.336;2023-02-15T16:43:40;0.30;;;0.30;;
15490;SDS011;7847;50.930;4.336;2023-02-15T16:46:09;0.30;;;0.30;;
15490;SDS011;7847;50.930;4.336;2023-02-15T16:48:38;0.30;;;0.30;;
15490;SDS011;7847;50.930;4.336;2023-02-15T16:51:05;0.30;;;0.30;;
15490;SDS011;7847;50.930;4.336;2023-02-15T16:53:32;0.30;;;0.30;;
15490;SDS011;7847;50.930;4.336;2023-02-15T16:55:59;0.30;;;0.30;;
15490;SDS011;7847;50.930;4.336;2023-02-15T17:00:59;0.20;;;0.20;;
15490;SDS011;7847;50.930;4.336;2023-02-15T17:03:26;0.30;;;0.30;;
15490;SDS011;7847;50.930;4.336;2023-02-15T17:05:54;0.20;;;0.20;;
15490;SDS011;7847;50.930;4.336;2023-02-15T17:08:24;0.30;;;0.30;;
15490;SDS011;7847;50.930;4.336;2023-02-15T17:13:26;0.30;;;0.30;;
15490;SDS011;7847;50.930;4.336;2023-02-15T17:18:24;0.30;;;0.30;;
15490;SDS011;7847;50.930;4.336;2023-02-15T17:20:52;0.30;;;0.30;;
15490;SDS011;7847;50.930;4.336;2023-02-15T17:25:51;0.30;;;0.30;;
15490;SDS011;7847;50.930;4.336;2023-02-15T17:28:22;0.30;;;0.30;;
15490;SDS011;7847;50.930;4.336;2023-02-15T17:30:48;0.30;;;0.30;;
15490;SDS011;7847;50.930;4.336;2023-02-15T17:36:03;0.30;;;0.30;;
15490;SDS011;7847;50.930;4.336;2023-02-15T17:38:37;0.30;;;0.30;;
15490;SDS011;7847;50.930;4.336;2023-02-15T17:41:03;0.30;;;0.30;;
15490;SDS011;7847;50.930;4.336;2023-02-15T17:43:30;0.30;;;0.30;;
15490;SDS011;7847;50.930;4.336;2023-02-15T17:45:56;0.30;;;0.30;;
15490;SDS011;7847;50.930;4.336;2023-02-15T17:48:36;0.30;;;0.30;;
15490;SDS011;7847;50.930;4.336;2023-02-15T17:51:03;0.30;;;0.30;;
15490;SDS011;7847;50.930;4.336;2023-02-15T17:53:30;0.30;;;0.30;;
15490;SDS011;7847;50.930;4.336;2023-02-15T17:55:57;0.30;;;0.30;;
15490;SDS011;7847;50.930;4.336;2023-02-15T17:58:23;0.30;;;0.30;;
15490;SDS011;7847;50.930;4.336;2023-02-15T18:00:55;0.30;;;0.30;;
15490;SDS011;7847;50.930;4.336;2023-02-15T18:03:46;0.30;;;0.30;;
15490;SDS011;7847;50.930;4.336;2023-02-15T18:06:31;0.30;;;0.30;;
15490;SDS011;7847;50.930;4.336;2023-02-15T18:09:17;0.30;;;0.30;;
15490;SDS011;7847;50.930;4.336;2023-02-15T18:12:02;0.30;;;0.30;;
15490;SDS011;7847;50.930;4.336;2023-02-15T18:14:32;0.30;;;0.30;;
15490;SDS011;7847;50.930;4.336;2023-02-15T18:16:58;0.27;;;0.27;;
15490;SDS011;7847;50.930;4.336;2023-02-15T18:19:24;0.30;;;0.30;;
15490;SDS011;7847;50.930;4.336;2023-02-15T18:21:51;0.30;;;0.30;;
15490;SDS011;7847;50.930;4.336;2023-02-15T18:24:23;0.30;;;0.30;;
15490;SDS011;7847;50.930;4.336;2023-02-15T18:26:50;0.30;;;0.30;;